Chisholm-Hibbing Airport

Date: 2024-06-11 13:31:00Z

Type: SPECI

Weather: Light Rain

Winds: 140° at 8 kts

Visibility: 2.5

Ceiling (AGL FT): Clouds SCATTERED at 2400, OVERCAST at 2900, OVERCAST at 2600

RAW METAR: KHIB 111331Z AUTO 14008KT 2 1/2SM -RA BR SCT024 OVC029 09/09 A2981 RMK AO2 P0006 T00940089

project-image